sensor_id;sensor_type;location;lat;lon;timestamp;temperature;humidity
28677;DHT22;15858;48.338;11.078;2022-12-29T00:00:14;5.30;99.90
28677;DHT22;15858;48.338;11.078;2022-12-29T00:02:41;5.30;99.90
28677;DHT22;15858;48.338;11.078;2022-12-29T00:05:09;5.30;99.90
28677;DHT22;15858;48.338;11.078;2022-12-29T00:07:35;5.40;99.90
28677;DHT22;15858;48.338;11.078;2022-12-29T00:10:02;5.40;99.90
28677;DHT22;15858;48.338;11.078;2022-12-29T00:12:29;5.60;99.90
28677;DHT22;15858;48.338;11.078;2022-12-29T00:14:56;5.60;99.90
28677;DHT22;15858;48.338;11.078;2022-12-29T00:17:22;5.60;99.90
28677;DHT22;15858;48.338;11.078;2022-12-29T00:19:49;5.70;99.90
28677;DHT22;15858;48.338;11.078;2022-12-29T00:22:16;5.70;99.90
28677;DHT22;15858;48.338;11.078;2022-12-29T00:24:44;5.70;99.90
28677;DHT22;15858;48.338;11.078;2022-12-29T00:27:12;5.70;99.90
28677;DHT22;15858;48.338;11.078;2022-12-29T00:29:39;5.70;99.90
28677;DHT22;15858;48.338;11.078;2022-12-29T00:32:09;5.80;99.90
28677;DHT22;15858;48.338;11.078;2022-12-29T00:34:36;5.80;99.90
28677;DHT22;15858;48.338;11.078;2022-12-29T00:37:02;5.70;99.90
28677;DHT22;15858;48.338;11.078;2022-12-29T00:39:29;5.70;99.90
28677;DHT22;15858;48.338;11.078;2022-12-29T00:41:55;5.80;99.90
28677;DHT22;15858;48.338;11.078;2022-12-29T00:44:22;5.80;99.90
28677;DHT22;15858;48.338;11.078;2022-12-29T00:46:48;5.70;99.90
28677;DHT22;15858;48.338;11.078;2022-12-29T00:49:15;5.70;99.90
28677;DHT22;15858;48.338;11.078;2022-12-29T00:51:43;5.80;99.90
28677;DHT22;15858;48.338;11.078;2022-12-29T00:54:11;5.70;99.90
28677;DHT22;15858;48.338;11.078;2022-12-29T00:56:38;5.70;99.90
28677;DHT22;15858;48.338;11.078;2022-12-29T00:59:07;5.60;99.90
28677;DHT22;15858;48.338;11.078;2022-12-29T01:01:34;5.60;99.90
28677;DHT22;15858;48.338;11.078;2022-12-29T01:04:02;5.50;99.90
28677;DHT22;15858;48.338;11.078;2022-12-29T01:06:31;5.50;99.90
28677;DHT22;15858;48.338;11.078;2022-12-29T01:08:58;5.50;99.90
28677;DHT22;15858;48.338;11.078;2022-12-29T01:11:25;5.40;99.90
28677;DHT22;15858;48.338;11.078;2022-12-29T01:13:52;5.30;99.90
28677;DHT22;15858;48.338;11.078;2022-12-29T01:16:18;5.30;99.90
28677;DHT22;15858;48.338;11.078;2022-12-29T01:18:45;5.20;99.90
28677;DHT22;15858;48.338;11.078;2022-12-29T01:21:11;5.10;99.90
28677;DHT22;15858;48.338;11.078;2022-12-29T01:23:38;5.00;99.90
28677;DHT22;15858;48.338;11.078;2022-12-29T01:26:12;4.90;99.90
28677;DHT22;15858;48.338;11.078;2022-12-29T01:28:39;4.90;99.90
28677;DHT22;15858;48.338;11.078;2022-12-29T01:31:07;4.90;99.90
28677;DHT22;15858;48.338;11.078;2022-12-29T01:33:34;4.90;99.90
28677;DHT22;15858;48.338;11.078;2022-12-29T01:36:02;4.80;99.90
28677;DHT22;15858;48.338;11.078;2022-12-29T01:38:28;4.70;99.90
28677;DHT22;15858;48.338;11.078;2022-12-29T01:40:55;4.70;99.90
28677;DHT22;15858;48.338;11.078;2022-12-29T01:43:37;4.70;99.90
28677;DHT22;15858;48.338;11.078;2022-12-29T01:46:15;4.60;99.90
28677;DHT22;15858;48.338;11.078;2022-12-29T01:48:44;4.60;99.90
28677;DHT22;15858;48.338;11.078;2022-12-29T01:51:11;4.70;99.90
28677;DHT22;15858;48.338;11.078;2022-12-29T01:53:38;4.70;99.90
28677;DHT22;15858;48.338;11.078;2022-12-29T01:56:07;4.70;99.90
28677;DHT22;15858;48.338;11.078;2022-12-29T01:58:39;4.70;99.90
28677;DHT22;15858;48.338;11.078;2022-12-29T02:01:08;4.80;99.90
28677;DHT22;15858;48.338;11.078;2022-12-29T02:03:35;4.80;99.90
28677;DHT22;15858;48.338;11.078;2022-12-29T02:06:09;4.90;99.90
28677;DHT22;15858;48.338;11.078;2022-12-29T02:08:38;5.00;99.90
28677;DHT22;15858;48.338;11.078;2022-12-29T02:11:05;5.10;99.90
28677;DHT22;15858;48.338;11.078;2022-12-29T02:13:32;5.20;99.90
28677;DHT22;15858;48.338;11.078;2022-12-29T02:21:46;5.30;99.90
28677;DHT22;15858;48.338;11.078;2022-12-29T02:24:18;5.30;99.90
28677;DHT22;15858;48.338;11.078;2022-12-29T02:41:16;6.10;99.90
28677;DHT22;15858;48.338;11.078;2022-12-29T02:43:59;6.20;99.90
28677;DHT22;15858;48.338;11.078;2022-12-29T02:46:44;6.30;99.90
28677;DHT22;15858;48.338;11.078;2022-12-29T02:49:25;6.30;99.90
28677;DHT22;15858;48.338;11.078;2022-12-29T02:52:14;6.30;99.90
28677;DHT22;15858;48.338;11.078;2022-12-29T02:54:42;6.30;99.90
28677;DHT22;15858;48.338;11.078;2022-12-29T02:59:58;6.40;99.90
28677;DHT22;15858;48.338;11.078;2022-12-29T03:02:52;6.50;99.90
28677;DHT22;15858;48.338;11.078;2022-12-29T03:08:23;6.60;99.90
28677;DHT22;15858;48.338;11.078;2022-12-29T03:11:04;6.70;99.90
28677;DHT22;15858;48.338;11.078;2022-12-29T03:13:39;6.90;99.90
28677;DHT22;15858;48.338;11.078;2022-12-29T03:19:08;7.10;99.90
28677;DHT22;15858;48.338;11.078;2022-12-29T03:21:46;7.20;99.90
28677;DHT22;15858;48.338;11.078;2022-12-29T03:24:17;7.20;99.90
28677;DHT22;15858;48.338;11.078;2022-12-29T03:26:45;7.20;99.90
28677;DHT22;15858;48.338;11.078;2022-12-29T03:29:14;7.20;99.90
28677;DHT22;15858;48.338;11.078;2022-12-29T03:31:44;7.30;99.90
28677;DHT22;15858;48.338;11.078;2022-12-29T03:34:12;7.30;99.90
28677;DHT22;15858;48.338;11.078;2022-12-29T03:36:47;7.30;99.90
28677;DHT22;15858;48.338;11.078;2022-12-29T03:39:17;7.40;99.90
28677;DHT22;15858;48.338;11.078;2022-12-29T03:41:46;7.40;99.90
28677;DHT22;15858;48.338;11.078;2022-12-29T03:44:14;7.40;99.90
28677;DHT22;15858;48.338;11.078;2022-12-29T03:46:40;7.40;99.90
28677;DHT22;15858;48.338;11.078;2022-12-29T03:49:07;7.50;99.90
28677;DHT22;15858;48.338;11.078;2022-12-29T03:51:34;7.50;99.90
28677;DHT22;15858;48.338;11.078;2022-12-29T03:54:00;7.60;99.90
28677;DHT22;15858;48.338;11.078;2022-12-29T03:56:27;7.50;99.90
28677;DHT22;15858;48.338;11.078;2022-12-29T03:58:54;7.50;99.90
28677;DHT22;15858;48.338;11.078;2022-12-29T04:01:20;7.50;99.90
28677;DHT22;15858;48.338;11.078;2022-12-29T04:03:47;7.50;99.90
28677;DHT22;15858;48.338;11.078;2022-12-29T04:06:14;7.50;99.90
28677;DHT22;15858;48.338;11.078;2022-12-29T04:08:40;7.60;99.90
28677;DHT22;15858;48.338;11.078;2022-12-29T04:11:07;7.50;99.90
28677;DHT22;15858;48.338;11.078;2022-12-29T04:13:33;7.60;99.90
28677;DHT22;15858;48.338;11.078;2022-12-29T04:16:00;7.50;99.90
28677;DHT22;15858;48.338;11.078;2022-12-29T04:18:26;7.50;99.90
28677;DHT22;15858;48.338;11.078;2022-12-29T04:20:53;7.40;99.90
28677;DHT22;15858;48.338;11.078;2022-12-29T04:23:20;7.40;99.90
28677;DHT22;15858;48.338;11.078;2022-12-29T04:25:47;7.40;99.90
28677;DHT22;15858;48.338;11.078;2022-12-29T04:28:14;7.30;99.90
28677;DHT22;15858;48.338;11.078;2022-12-29T04:30:45;7.30;99.90
28677;DHT22;15858;48.338;11.078;2022-12-29T04:33:12;7.30;99.90
28677;DHT22;15858;48.338;11.078;2022-12-29T04:35:39;7.30;99.90
28677;DHT22;15858;48.338;11.078;2022-12-29T04:38:06;7.20;99.90
28677;DHT22;15858;48.338;11.078;2022-12-29T04:40:33;7.20;99.90
28677;DHT22;15858;48.338;11.078;2022-12-29T04:42:59;7.20;99.90
28677;DHT22;15858;48.338;11.078;2022-12-29T04:45:26;7.20;99.90
28677;DHT22;15858;48.338;11.078;2022-12-29T04:47:52;7.20;99.90
28677;DHT22;15858;48.338;11.078;2022-12-29T04:50:19;7.30;99.90
28677;DHT22;15858;48.338;11.078;2022-12-29T04:52:46;7.30;99.90
28677;DHT22;15858;48.338;11.078;2022-12-29T04:55:12;7.30;99.90
28677;DHT22;15858;48.338;11.078;2022-12-29T04:57:40;7.40;99.90
28677;DHT22;15858;48.338;11.078;2022-12-29T05:00:07;7.40;99.90
28677;DHT22;15858;48.338;11.078;2022-12-29T05:02:34;7.40;99.90
28677;DHT22;15858;48.338;11.078;2022-12-29T05:05:01;7.50;99.90
28677;DHT22;15858;48.338;11.078;2022-12-29T05:07:27;7.50;99.90
28677;DHT22;15858;48.338;11.078;2022-12-29T05:09:54;7.50;99.90
28677;DHT22;15858;48.338;11.078;2022-12-29T05:12:21;7.50;99.90
28677;DHT22;15858;48.338;11.078;2022-12-29T05:14:47;7.60;99.90
28677;DHT22;15858;48.338;11.078;2022-12-29T05:17:14;7.60;99.90
28677;DHT22;15858;48.338;11.078;2022-12-29T05:19:40;7.60;99.90
28677;DHT22;15858;48.338;11.078;2022-12-29T05:22:07;7.50;99.90
28677;DHT22;15858;48.338;11.078;2022-12-29T05:24:33;7.40;99.90
28677;DHT22;15858;48.338;11.078;2022-12-29T05:27:00;7.40;99.90
28677;DHT22;15858;48.338;11.078;2022-12-29T05:29:27;7.30;99.90
28677;DHT22;15858;48.338;11.078;2022-12-29T05:31:53;7.30;99.90
28677;DHT22;15858;48.338;11.078;2022-12-29T05:34:20;7.10;99.90
28677;DHT22;15858;48.338;11.078;2022-12-29T05:36:46;7.10;99.90
28677;DHT22;15858;48.338;11.078;2022-12-29T05:39:13;7.10;99.90
28677;DHT22;15858;48.338;11.078;2022-12-29T05:41:40;7.10;99.90
28677;DHT22;15858;48.338;11.078;2022-12-29T05:44:06;7.10;99.90
28677;DHT22;15858;48.338;11.078;2022-12-29T05:46:33;7.20;99.90
28677;DHT22;15858;48.338;11.078;2022-12-29T05:48:59;7.30;99.90
28677;DHT22;15858;48.338;11.078;2022-12-29T05:51:26;7.20;99.90
28677;DHT22;15858;48.338;11.078;2022-12-29T05:53:53;7.30;99.90
28677;DHT22;15858;48.338;11.078;2022-12-29T05:56:19;7.30;99.90
28677;DHT22;15858;48.338;11.078;2022-12-29T05:58:46;7.30;99.90
28677;DHT22;15858;48.338;11.078;2022-12-29T06:01:12;7.30;99.90
28677;DHT22;15858;48.338;11.078;2022-12-29T06:03:39;7.50;99.90
28677;DHT22;15858;48.338;11.078;2022-12-29T06:06:13;7.50;99.90
28677;DHT22;15858;48.338;11.078;2022-12-29T06:08:40;7.50;99.90
28677;DHT22;15858;48.338;11.078;2022-12-29T06:11:07;7.60;99.90
28677;DHT22;15858;48.338;11.078;2022-12-29T06:13:33;7.70;99.90
28677;DHT22;15858;48.338;11.078;2022-12-29T06:16:00;7.70;99.90
28677;DHT22;15858;48.338;11.078;2022-12-29T06:18:26;7.80;99.90
28677;DHT22;15858;48.338;11.078;2022-12-29T06:20:53;7.80;99.90
28677;DHT22;15858;48.338;11.078;2022-12-29T06:23:20;7.80;99.90
28677;DHT22;15858;48.338;11.078;2022-12-29T06:25:49;7.80;99.90
28677;DHT22;15858;48.338;11.078;2022-12-29T06:28:16;7.80;99.90
28677;DHT22;15858;48.338;11.078;2022-12-29T06:30:44;7.70;99.90
28677;DHT22;15858;48.338;11.078;2022-12-29T06:33:11;7.80;99.90
28677;DHT22;15858;48.338;11.078;2022-12-29T06:35:38;7.80;99.90
28677;DHT22;15858;48.338;11.078;2022-12-29T06:38:05;7.80;99.90
28677;DHT22;15858;48.338;11.078;2022-12-29T06:40:32;7.90;99.90
28677;DHT22;15858;48.338;11.078;2022-12-29T06:42:59;7.90;99.90
28677;DHT22;15858;48.338;11.078;2022-12-29T06:45:25;8.00;99.90
28677;DHT22;15858;48.338;11.078;2022-12-29T06:47:52;8.00;99.90
28677;DHT22;15858;48.338;11.078;2022-12-29T06:50:18;8.10;99.90
28677;DHT22;15858;48.338;11.078;2022-12-29T06:52:45;8.10;99.90
28677;DHT22;15858;48.338;11.078;2022-12-29T06:55:12;8.20;99.90
28677;DHT22;15858;48.338;11.078;2022-12-29T06:57:38;8.20;99.90
28677;DHT22;15858;48.338;11.078;2022-12-29T07:00:05;8.30;99.90
28677;DHT22;15858;48.338;11.078;2022-12-29T07:02:32;8.40;99.90
28677;DHT22;15858;48.338;11.078;2022-12-29T07:04:59;8.40;99.90
28677;DHT22;15858;48.338;11.078;2022-12-29T07:07:25;8.50;99.90
28677;DHT22;15858;48.338;11.078;2022-12-29T07:09:52;8.60;99.90
28677;DHT22;15858;48.338;11.078;2022-12-29T07:12:19;8.60;99.90
28677;DHT22;15858;48.338;11.078;2022-12-29T07:14:45;8.70;99.90
28677;DHT22;15858;48.338;11.078;2022-12-29T07:17:12;8.80;99.90
28677;DHT22;15858;48.338;11.078;2022-12-29T07:19:39;8.90;99.90
28677;DHT22;15858;48.338;11.078;2022-12-29T07:22:06;8.90;99.90
28677;DHT22;15858;48.338;11.078;2022-12-29T07:24:32;8.80;99.90
28677;DHT22;15858;48.338;11.078;2022-12-29T07:26:59;8.90;99.90
28677;DHT22;15858;48.338;11.078;2022-12-29T07:29:26;8.90;99.90
28677;DHT22;15858;48.338;11.078;2022-12-29T07:31:52;9.00;99.90
28677;DHT22;15858;48.338;11.078;2022-12-29T07:34:19;8.90;99.90
28677;DHT22;15858;48.338;11.078;2022-12-29T07:36:46;8.90;99.90
28677;DHT22;15858;48.338;11.078;2022-12-29T07:39:12;8.90;99.90
28677;DHT22;15858;48.338;11.078;2022-12-29T07:41:39;9.00;99.90
28677;DHT22;15858;48.338;11.078;2022-12-29T07:44:08;9.10;99.90
28677;DHT22;15858;48.338;11.078;2022-12-29T07:46:35;9.10;99.90
28677;DHT22;15858;48.338;11.078;2022-12-29T07:49:21;9.20;99.90
28677;DHT22;15858;48.338;11.078;2022-12-29T07:51:48;9.20;99.90
28677;DHT22;15858;48.338;11.078;2022-12-29T07:54:14;9.20;99.90
28677;DHT22;15858;48.338;11.078;2022-12-29T07:56:41;9.20;99.90
28677;DHT22;15858;48.338;11.078;2022-12-29T07:59:07;9.30;99.90
28677;DHT22;15858;48.338;11.078;2022-12-29T08:01:34;9.40;99.90
28677;DHT22;15858;48.338;11.078;2022-12-29T08:04:01;9.40;99.90
28677;DHT22;15858;48.338;11.078;2022-12-29T08:06:28;9.40;99.90
28677;DHT22;15858;48.338;11.078;2022-12-29T08:08:54;9.50;99.90
28677;DHT22;15858;48.338;11.078;2022-12-29T08:11:21;9.50;99.90
28677;DHT22;15858;48.338;11.078;2022-12-29T08:13:47;9.40;99.90
28677;DHT22;15858;48.338;11.078;2022-12-29T08:16:14;9.40;99.90
28677;DHT22;15858;48.338;11.078;2022-12-29T08:18:41;9.40;99.90
28677;DHT22;15858;48.338;11.078;2022-12-29T08:21:07;9.50;99.90
28677;DHT22;15858;48.338;11.078;2022-12-29T08:23:34;9.60;99.90
28677;DHT22;15858;48.338;11.078;2022-12-29T08:26:03;9.60;99.90
28677;DHT22;15858;48.338;11.078;2022-12-29T08:28:31;9.70;99.90
28677;DHT22;15858;48.338;11.078;2022-12-29T08:31:02;9.80;99.90
28677;DHT22;15858;48.338;11.078;2022-12-29T08:33:29;9.80;99.90
28677;DHT22;15858;48.338;11.078;2022-12-29T08:36:03;9.90;99.90
28677;DHT22;15858;48.338;11.078;2022-12-29T08:38:30;9.90;99.90
28677;DHT22;15858;48.338;11.078;2022-12-29T08:40:58;10.00;99.90
28677;DHT22;15858;48.338;11.078;2022-12-29T08:43:25;10.10;99.90
28677;DHT22;15858;48.338;11.078;2022-12-29T08:45:52;10.10;99.90
28677;DHT22;15858;48.338;11.078;2022-12-29T08:48:18;10.10;99.90
28677;DHT22;15858;48.338;11.078;2022-12-29T08:50:45;10.10;99.90
28677;DHT22;15858;48.338;11.078;2022-12-29T08:53:12;10.20;99.90
28677;DHT22;15858;48.338;11.078;2022-12-29T08:55:39;10.20;99.90
28677;DHT22;15858;48.338;11.078;2022-12-29T08:58:06;10.20;99.90
28677;DHT22;15858;48.338;11.078;2022-12-29T09:00:32;10.20;99.90
28677;DHT22;15858;48.338;11.078;2022-12-29T09:02:59;10.30;99.90
28677;DHT22;15858;48.338;11.078;2022-12-29T09:05:26;10.30;99.90
28677;DHT22;15858;48.338;11.078;2022-12-29T09:07:52;10.40;99.90
28677;DHT22;15858;48.338;11.078;2022-12-29T09:10:19;10.40;99.90
28677;DHT22;15858;48.338;11.078;2022-12-29T09:12:46;10.40;99.90
28677;DHT22;15858;48.338;11.078;2022-12-29T09:15:12;10.40;99.90
28677;DHT22;15858;48.338;11.078;2022-12-29T09:17:39;10.40;99.90
28677;DHT22;15858;48.338;11.078;2022-12-29T09:20:06;10.40;99.90
28677;DHT22;15858;48.338;11.078;2022-12-29T09:22:33;10.40;99.90
28677;DHT22;15858;48.338;11.078;2022-12-29T09:24:59;10.40;99.90
28677;DHT22;15858;48.338;11.078;2022-12-29T09:27:26;10.40;99.90
28677;DHT22;15858;48.338;11.078;2022-12-29T09:29:52;10.40;99.90
28677;DHT22;15858;48.338;11.078;2022-12-29T09:32:19;10.50;99.90
28677;DHT22;15858;48.338;11.078;2022-12-29T09:34:48;10.50;99.90
28677;DHT22;15858;48.338;11.078;2022-12-29T09:39:57;10.60;99.90
28677;DHT22;15858;48.338;11.078;2022-12-29T09:45:20;10.60;99.90
28677;DHT22;15858;48.338;11.078;2022-12-29T09:47:52;10.60;99.90
28677;DHT22;15858;48.338;11.078;2022-12-29T09:50:31;10.60;99.90
28677;DHT22;15858;48.338;11.078;2022-12-29T09:55:52;10.60;99.90
28677;DHT22;15858;48.338;11.078;2022-12-29T09:58:42;10.60;99.90
28677;DHT22;15858;48.338;11.078;2022-12-29T10:03:57;10.70;99.90
28677;DHT22;15858;48.338;11.078;2022-12-29T10:06:47;10.70;99.90
28677;DHT22;15858;48.338;11.078;2022-12-29T10:15:38;11.00;99.90
28677;DHT22;15858;48.338;11.078;2022-12-29T10:21:04;11.00;99.90
28677;DHT22;15858;48.338;11.078;2022-12-29T10:23:45;11.10;99.90
28677;DHT22;15858;48.338;11.078;2022-12-29T10:26:17;11.10;99.90
28677;DHT22;15858;48.338;11.078;2022-12-29T10:31:24;11.10;99.90
28677;DHT22;15858;48.338;11.078;2022-12-29T10:33:58;11.20;99.90
28677;DHT22;15858;48.338;11.078;2022-12-29T10:36:34;11.30;99.90
28677;DHT22;15858;48.338;11.078;2022-12-29T10:42:01;11.40;99.90
28677;DHT22;15858;48.338;11.078;2022-12-29T10:44:31;11.40;99.90
28677;DHT22;15858;48.338;11.078;2022-12-29T10:47:02;11.40;99.90
28677;DHT22;15858;48.338;11.078;2022-12-29T10:49:30;11.40;99.90
28677;DHT22;15858;48.338;11.078;2022-12-29T10:52:00;11.40;99.90
28677;DHT22;15858;48.338;11.078;2022-12-29T10:57:09;11.40;99.90
28677;DHT22;15858;48.338;11.078;2022-12-29T10:59:37;11.80;99.90
28677;DHT22;15858;48.338;11.078;2022-12-29T11:07:00;11.60;99.90
28677;DHT22;15858;48.338;11.078;2022-12-29T11:09:29;11.60;99.90
28677;DHT22;15858;48.338;11.078;2022-12-29T11:14:46;11.70;99.90
28677;DHT22;15858;48.338;11.078;2022-12-29T11:17:17;11.80;99.90
28677;DHT22;15858;48.338;11.078;2022-12-29T11:19:43;11.90;99.90
28677;DHT22;15858;48.338;11.078;2022-12-29T11:24:49;11.90;99.90
28677;DHT22;15858;48.338;11.078;2022-12-29T11:27:22;11.90;99.90
28677;DHT22;15858;48.338;11.078;2022-12-29T11:29:51;11.90;99.90
28677;DHT22;15858;48.338;11.078;2022-12-29T11:32:28;12.20;99.90
28677;DHT22;15858;48.338;11.078;2022-12-29T11:34:58;12.50;99.90
28677;DHT22;15858;48.338;11.078;2022-12-29T11:37:32;12.80;99.90
28677;DHT22;15858;48.338;11.078;2022-12-29T11:40:05;13.00;99.90
28677;DHT22;15858;48.338;11.078;2022-12-29T11:42:39;13.20;99.90
28677;DHT22;15858;48.338;11.078;2022-12-29T11:47:44;13.60;99.90
28677;DHT22;15858;48.338;11.078;2022-12-29T11:50:21;13.70;99.90
28677;DHT22;15858;48.338;11.078;2022-12-29T11:52:56;13.90;99.90
28677;DHT22;15858;48.338;11.078;2022-12-29T11:55:25;14.00;99.90
28677;DHT22;15858;48.338;11.078;2022-12-29T11:57:54;14.10;99.90
28677;DHT22;15858;48.338;11.078;2022-12-29T12:00:23;14.20;99.90
28677;DHT22;15858;48.338;11.078;2022-12-29T12:02:53;14.30;99.70
28677;DHT22;15858;48.338;11.078;2022-12-29T12:05:42;14.30;99.90
28677;DHT22;15858;48.338;11.078;2022-12-29T12:08:17;14.30;99.80
28677;DHT22;15858;48.338;11.078;2022-12-29T12:13:34;14.10;99.90
28677;DHT22;15858;48.338;11.078;2022-12-29T12:16:11;14.10;99.90
28677;DHT22;15858;48.338;11.078;2022-12-29T12:18:47;14.10;99.50
28677;DHT22;15858;48.338;11.078;2022-12-29T12:21:39;14.00;99.70
28677;DHT22;15858;48.338;11.078;2022-12-29T12:24:39;13.90;99.90
28677;DHT22;15858;48.338;11.078;2022-12-29T12:30:03;13.70;99.90
28677;DHT22;15858;48.338;11.078;2022-12-29T12:32:45;13.70;99.90
28677;DHT22;15858;48.338;11.078;2022-12-29T12:35:15;13.70;99.90
28677;DHT22;15858;48.338;11.078;2022-12-29T12:46:07;13.20;99.90
28677;DHT22;15858;48.338;11.078;2022-12-29T12:51:53;13.10;99.90
28677;DHT22;15858;48.338;11.078;2022-12-29T12:54:46;13.00;99.90
28677;DHT22;15858;48.338;11.078;2022-12-29T12:57:24;12.90;99.90
28677;DHT22;15858;48.338;11.078;2022-12-29T13:00:01;12.80;99.90
28677;DHT22;15858;48.338;11.078;2022-12-29T13:08:43;12.80;99.90
28677;DHT22;15858;48.338;11.078;2022-12-29T13:17:06;12.70;99.90
28677;DHT22;15858;48.338;11.078;2022-12-29T13:19:59;12.70;99.90
28677;DHT22;15858;48.338;11.078;2022-12-29T13:25:21;12.60;99.90
28677;DHT22;15858;48.338;11.078;2022-12-29T13:28:11;12.70;99.90
28677;DHT22;15858;48.338;11.078;2022-12-29T13:36:26;12.50;99.90
28677;DHT22;15858;48.338;11.078;2022-12-29T13:41:35;12.50;99.90
28677;DHT22;15858;48.338;11.078;2022-12-29T13:44:03;12.50;99.90
28677;DHT22;15858;48.338;11.078;2022-12-29T13:46:38;12.50;99.90
28677;DHT22;15858;48.338;11.078;2022-12-29T13:49:22;12.50;99.90
28677;DHT22;15858;48.338;11.078;2022-12-29T13:57:42;12.40;99.90
28677;DHT22;15858;48.338;11.078;2022-12-29T14:00:19;12.40;99.90
28677;DHT22;15858;48.338;11.078;2022-12-29T14:08:00;12.30;99.90
28677;DHT22;15858;48.338;11.078;2022-12-29T14:13:03;12.20;99.90
28677;DHT22;15858;48.338;11.078;2022-12-29T14:15:31;12.20;99.90
28677;DHT22;15858;48.338;11.078;2022-12-29T14:18:16;12.20;99.90
28677;DHT22;15858;48.338;11.078;2022-12-29T14:20:56;12.10;99.90
28677;DHT22;15858;48.338;11.078;2022-12-29T14:23:27;12.10;99.90
28677;DHT22;15858;48.338;11.078;2022-12-29T14:26:32;12.00;99.90
28677;DHT22;15858;48.338;11.078;2022-12-29T14:31:52;12.00;99.90
28677;DHT22;15858;48.338;11.078;2022-12-29T14:34:29;11.90;99.90
28677;DHT22;15858;48.338;11.078;2022-12-29T14:36:59;11.90;99.90
28677;DHT22;15858;48.338;11.078;2022-12-29T14:39:43;11.90;99.90
28677;DHT22;15858;48.338;11.078;2022-12-29T14:56:10;11.70;99.90
28677;DHT22;15858;48.338;11.078;2022-12-29T14:58:58;11.70;99.90
28677;DHT22;15858;48.338;11.078;2022-12-29T15:01:36;11.60;99.90
28677;DHT22;15858;48.338;11.078;2022-12-29T15:04:26;11.50;99.90
28677;DHT22;15858;48.338;11.078;2022-12-29T15:06:55;11.50;99.90
28677;DHT22;15858;48.338;11.078;2022-12-29T15:09:44;11.50;99.90
28677;DHT22;15858;48.338;11.078;2022-12-29T15:12:36;11.50;99.90
28677;DHT22;15858;48.338;11.078;2022-12-29T15:15:18;11.40;99.90
28677;DHT22;15858;48.338;11.078;2022-12-29T15:17:45;11.40;99.90
28677;DHT22;15858;48.338;11.078;2022-12-29T15:20:31;11.30;99.90
28677;DHT22;15858;48.338;11.078;2022-12-29T15:23:02;11.20;99.90
28677;DHT22;15858;48.338;11.078;2022-12-29T15:25:30;11.20;99.90
28677;DHT22;15858;48.338;11.078;2022-12-29T15:28:03;11.20;99.90
28677;DHT22;15858;48.338;11.078;2022-12-29T15:30:31;11.10;99.90
28677;DHT22;15858;48.338;11.078;2022-12-29T15:32:58;11.10;99.90
28677;DHT22;15858;48.338;11.078;2022-12-29T15:35:33;11.00;99.90
28677;DHT22;15858;48.338;11.078;2022-12-29T15:38:01;11.00;99.90
28677;DHT22;15858;48.338;11.078;2022-12-29T15:40:38;10.90;99.90
28677;DHT22;15858;48.338;11.078;2022-12-29T15:46:15;10.80;99.90
28677;DHT22;15858;48.338;11.078;2022-12-29T15:48:42;10.80;99.90
28677;DHT22;15858;48.338;11.078;2022-12-29T15:53:47;10.80;99.90
28677;DHT22;15858;48.338;11.078;2022-12-29T15:56:15;10.70;99.90
28677;DHT22;15858;48.338;11.078;2022-12-29T15:58:48;10.70;99.90
28677;DHT22;15858;48.338;11.078;2022-12-29T16:01:30;10.70;99.90
28677;DHT22;15858;48.338;11.078;2022-12-29T16:03:59;10.70;99.90
28677;DHT22;15858;48.338;11.078;2022-12-29T16:06:34;10.70;99.90
28677;DHT22;15858;48.338;11.078;2022-12-29T16:11:33;10.70;99.90
28677;DHT22;15858;48.338;11.078;2022-12-29T16:14:01;10.70;99.90
28677;DHT22;15858;48.338;11.078;2022-12-29T16:16:37;10.60;99.90
28677;DHT22;15858;48.338;11.078;2022-12-29T16:19:13;10.60;99.90
28677;DHT22;15858;48.338;11.078;2022-12-29T16:21:42;10.60;99.90
28677;DHT22;15858;48.338;11.078;2022-12-29T16:24:16;10.60;99.90
28677;DHT22;15858;48.338;11.078;2022-12-29T16:26:48;10.60;99.90
28677;DHT22;15858;48.338;11.078;2022-12-29T16:29:16;10.60;99.90
28677;DHT22;15858;48.338;11.078;2022-12-29T16:34:25;10.60;99.90
28677;DHT22;15858;48.338;11.078;2022-12-29T16:39:39;10.70;99.90
28677;DHT22;15858;48.338;11.078;2022-12-29T16:42:35;10.70;99.90
28677;DHT22;15858;48.338;11.078;2022-12-29T16:50:35;10.60;99.90
28677;DHT22;15858;48.338;11.078;2022-12-29T16:53:04;10.70;99.90
28677;DHT22;15858;48.338;11.078;2022-12-29T16:55:32;10.70;99.90
28677;DHT22;15858;48.338;11.078;2022-12-29T16:57:59;10.70;99.90
28677;DHT22;15858;48.338;11.078;2022-12-29T17:00:29;10.70;99.90
28677;DHT22;15858;48.338;11.078;2022-12-29T17:02:59;10.80;99.90
28677;DHT22;15858;48.338;11.078;2022-12-29T17:05:27;10.70;99.90
28677;DHT22;15858;48.338;11.078;2022-12-29T17:07:53;10.70;99.90
28677;DHT22;15858;48.338;11.078;2022-12-29T17:10:20;10.70;99.90
28677;DHT22;15858;48.338;11.078;2022-12-29T17:12:47;10.70;99.90
28677;DHT22;15858;48.338;11.078;2022-12-29T17:15:26;10.70;99.90
28677;DHT22;15858;48.338;11.078;2022-12-29T17:17:55;10.60;99.90
28677;DHT22;15858;48.338;11.078;2022-12-29T17:20:24;10.60;99.90
28677;DHT22;15858;48.338;11.078;2022-12-29T17:22:51;10.60;99.90
28677;DHT22;15858;48.338;11.078;2022-12-29T17:25:33;10.60;99.90
28677;DHT22;15858;48.338;11.078;2022-12-29T17:28:04;10.50;99.90
28677;DHT22;15858;48.338;11.078;2022-12-29T17:30:32;10.50;99.90
28677;DHT22;15858;48.338;11.078;2022-12-29T17:33:03;10.50;99.90
28677;DHT22;15858;48.338;11.078;2022-12-29T17:35:30;10.40;99.90
28677;DHT22;15858;48.338;11.078;2022-12-29T17:37:56;10.40;99.90
28677;DHT22;15858;48.338;11.078;2022-12-29T17:40:28;10.40;99.90
28677;DHT22;15858;48.338;11.078;2022-12-29T17:42:57;10.30;99.90
28677;DHT22;15858;48.338;11.078;2022-12-29T17:45:26;10.30;99.90
28677;DHT22;15858;48.338;11.078;2022-12-29T17:47:54;10.30;99.90
28677;DHT22;15858;48.338;11.078;2022-12-29T17:50:24;10.30;99.90
28677;DHT22;15858;48.338;11.078;2022-12-29T17:52:53;10.20;99.90
28677;DHT22;15858;48.338;11.078;2022-12-29T17:55:26;10.20;99.90
28677;DHT22;15858;48.338;11.078;2022-12-29T17:58:22;10.20;99.90
28677;DHT22;15858;48.338;11.078;2022-12-29T18:00:54;10.20;99.90
28677;DHT22;15858;48.338;11.078;2022-12-29T18:03:28;10.20;99.90
28677;DHT22;15858;48.338;11.078;2022-12-29T18:05:56;10.20;99.90
28677;DHT22;15858;48.338;11.078;2022-12-29T18:08:23;10.20;99.90
28677;DHT22;15858;48.338;11.078;2022-12-29T18:10:53;10.20;99.90
28677;DHT22;15858;48.338;11.078;2022-12-29T18:13:23;10.20;99.90
28677;DHT22;15858;48.338;11.078;2022-12-29T18:15:51;10.20;99.90
28677;DHT22;15858;48.338;11.078;2022-12-29T18:18:20;10.20;99.90
28677;DHT22;15858;48.338;11.078;2022-12-29T18:20:48;10.30;99.90
28677;DHT22;15858;48.338;11.078;2022-12-29T18:23:21;10.30;99.90